sensor_id;sensor_type;location;lat;lon;timestamp;P1;durP1;ratioP1;P2;durP2;ratioP2
21138;SDS011;10727;43.600;1.444;2023-02-01T00:00:55;5.38;;;4.53;;
21138;SDS011;10727;43.600;1.444;2023-02-01T00:03:59;7.05;;;4.68;;
21138;SDS011;10727;43.600;1.444;2023-02-01T00:07:04;6.22;;;4.50;;
21138;SDS011;10727;43.600;1.444;2023-02-01T00:10:10;5.68;;;4.30;;
21138;SDS011;10727;43.600;1.444;2023-02-01T00:13:15;6.43;;;4.90;;
21138;SDS011;10727;43.600;1.444;2023-02-01T00:16:23;6.13;;;4.70;;
21138;SDS011;10727;43.600;1.444;2023-02-01T00:19:28;6.07;;;4.60;;
21138;SDS011;10727;43.600;1.444;2023-02-01T00:22:33;5.43;;;4.50;;
21138;SDS011;10727;43.600;1.444;2023-02-01T00:25:38;8.25;;;4.40;;
21138;SDS011;10727;43.600;1.444;2023-02-01T00:28:44;7.78;;;5.10;;
21138;SDS011;10727;43.600;1.444;2023-02-01T00:31:50;7.18;;;4.70;;
21138;SDS011;10727;43.600;1.444;2023-02-01T00:34:56;6.40;;;4.53;;
21138;SDS011;10727;43.600;1.444;2023-02-01T00:38:01;7.47;;;5.07;;
21138;SDS011;10727;43.600;1.444;2023-02-01T00:41:09;7.80;;;5.20;;
21138;SDS011;10727;43.600;1.444;2023-02-01T00:44:14;6.25;;;5.00;;
21138;SDS011;10727;43.600;1.444;2023-02-01T00:47:20;6.35;;;5.10;;
21138;SDS011;10727;43.600;1.444;2023-02-01T00:50:27;6.22;;;4.80;;
21138;SDS011;10727;43.600;1.444;2023-02-01T00:53:32;8.43;;;5.10;;
21138;SDS011;10727;43.600;1.444;2023-02-01T00:56:37;8.32;;;5.53;;
21138;SDS011;10727;43.600;1.444;2023-02-01T00:59:42;6.82;;;5.00;;
21138;SDS011;10727;43.600;1.444;2023-02-01T01:02:49;6.85;;;5.22;;
21138;SDS011;10727;43.600;1.444;2023-02-01T01:05:56;8.23;;;5.00;;
21138;SDS011;10727;43.600;1.444;2023-02-01T01:09:02;7.65;;;5.57;;
21138;SDS011;10727;43.600;1.444;2023-02-01T01:12:07;7.30;;;5.20;;
21138;SDS011;10727;43.600;1.444;2023-02-01T01:15:12;8.90;;;5.55;;
21138;SDS011;10727;43.600;1.444;2023-02-01T01:18:19;6.53;;;5.20;;
21138;SDS011;10727;43.600;1.444;2023-02-01T01:21:24;9.00;;;5.70;;
21138;SDS011;10727;43.600;1.444;2023-02-01T01:24:29;7.20;;;5.30;;
21138;SDS011;10727;43.600;1.444;2023-02-01T01:27:34;7.63;;;5.47;;
21138;SDS011;10727;43.600;1.444;2023-02-01T01:30:39;7.68;;;5.68;;
21138;SDS011;10727;43.600;1.444;2023-02-01T01:33:48;9.80;;;5.70;;
21138;SDS011;10727;43.600;1.444;2023-02-01T01:36:54;7.38;;;5.38;;
21138;SDS011;10727;43.600;1.444;2023-02-01T01:39:59;7.05;;;5.15;;
21138;SDS011;10727;43.600;1.444;2023-02-01T01:43:09;7.15;;;5.47;;
21138;SDS011;10727;43.600;1.444;2023-02-01T01:46:15;8.70;;;5.50;;
21138;SDS011;10727;43.600;1.444;2023-02-01T01:49:22;7.78;;;5.32;;
21138;SDS011;10727;43.600;1.444;2023-02-01T01:52:29;6.32;;;5.20;;
21138;SDS011;10727;43.600;1.444;2023-02-01T01:55:35;8.80;;;5.28;;
21138;SDS011;10727;43.600;1.444;2023-02-01T01:58:41;7.20;;;5.70;;
21138;SDS011;10727;43.600;1.444;2023-02-01T02:01:47;8.10;;;5.88;;
21138;SDS011;10727;43.600;1.444;2023-02-01T02:04:53;6.72;;;5.32;;
21138;SDS011;10727;43.600;1.444;2023-02-01T02:07:58;6.55;;;5.50;;
21138;SDS011;10727;43.600;1.444;2023-02-01T02:11:04;7.38;;;5.60;;
21138;SDS011;10727;43.600;1.444;2023-02-01T02:14:10;7.57;;;5.43;;
21138;SDS011;10727;43.600;1.444;2023-02-01T02:17:19;7.35;;;5.28;;
21138;SDS011;10727;43.600;1.444;2023-02-01T02:20:34;6.15;;;5.07;;
21138;SDS011;10727;43.600;1.444;2023-02-01T02:23:56;7.45;;;5.13;;
21138;SDS011;10727;43.600;1.444;2023-02-01T02:27:11;6.65;;;5.40;;
21138;SDS011;10727;43.600;1.444;2023-02-01T02:30:39;6.82;;;5.53;;
21138;SDS011;10727;43.600;1.444;2023-02-01T02:33:53;6.18;;;5.28;;
21138;SDS011;10727;43.600;1.444;2023-02-01T02:37:01;6.15;;;4.68;;
21138;SDS011;10727;43.600;1.444;2023-02-01T02:40:11;8.18;;;5.63;;
21138;SDS011;10727;43.600;1.444;2023-02-01T02:43:20;6.45;;;5.28;;
21138;SDS011;10727;43.600;1.444;2023-02-01T02:46:44;7.60;;;4.82;;
21138;SDS011;10727;43.600;1.444;2023-02-01T02:50:11;9.75;;;4.85;;
21138;SDS011;10727;43.600;1.444;2023-02-01T02:53:38;6.40;;;4.68;;
21138;SDS011;10727;43.600;1.444;2023-02-01T02:57:04;6.85;;;4.97;;
21138;SDS011;10727;43.600;1.444;2023-02-01T03:00:29;6.18;;;4.50;;
21138;SDS011;10727;43.600;1.444;2023-02-01T03:03:54;5.93;;;4.57;;
21138;SDS011;10727;43.600;1.444;2023-02-01T03:07:14;5.45;;;4.50;;
21138;SDS011;10727;43.600;1.444;2023-02-01T03:10:22;6.82;;;4.72;;
21138;SDS011;10727;43.600;1.444;2023-02-01T03:13:31;7.93;;;5.18;;
21138;SDS011;10727;43.600;1.444;2023-02-01T03:16:40;5.20;;;4.03;;
21138;SDS011;10727;43.600;1.444;2023-02-01T03:19:46;6.07;;;4.68;;
21138;SDS011;10727;43.600;1.444;2023-02-01T03:22:54;7.10;;;4.32;;
21138;SDS011;10727;43.600;1.444;2023-02-01T03:26:00;6.53;;;4.53;;
21138;SDS011;10727;43.600;1.444;2023-02-01T03:29:08;6.93;;;3.95;;
21138;SDS011;10727;43.600;1.444;2023-02-01T03:32:16;6.15;;;4.47;;
21138;SDS011;10727;43.600;1.444;2023-02-01T03:35:23;6.47;;;4.57;;
21138;SDS011;10727;43.600;1.444;2023-02-01T03:38:32;5.60;;;4.22;;
21138;SDS011;10727;43.600;1.444;2023-02-01T03:41:40;5.85;;;4.18;;
21138;SDS011;10727;43.600;1.444;2023-02-01T03:44:47;5.68;;;4.15;;
21138;SDS011;10727;43.600;1.444;2023-02-01T03:47:55;7.07;;;4.78;;
21138;SDS011;10727;43.600;1.444;2023-02-01T03:51:01;5.63;;;4.30;;
21138;SDS011;10727;43.600;1.444;2023-02-01T03:54:10;5.53;;;3.92;;
21138;SDS011;10727;43.600;1.444;2023-02-01T03:57:17;5.53;;;3.92;;
21138;SDS011;10727;43.600;1.444;2023-02-01T04:00:25;5.13;;;3.83;;
21138;SDS011;10727;43.600;1.444;2023-02-01T04:03:32;5.53;;;3.97;;
21138;SDS011;10727;43.600;1.444;2023-02-01T04:06:37;6.78;;;4.18;;
21138;SDS011;10727;43.600;1.444;2023-02-01T04:09:44;5.93;;;4.30;;
21138;SDS011;10727;43.600;1.444;2023-02-01T04:12:49;5.55;;;4.07;;
21138;SDS011;10727;43.600;1.444;2023-02-01T04:15:54;4.90;;;3.72;;
21138;SDS011;10727;43.600;1.444;2023-02-01T04:18:59;5.15;;;3.67;;
21138;SDS011;10727;43.600;1.444;2023-02-01T04:22:05;5.10;;;3.92;;
21138;SDS011;10727;43.600;1.444;2023-02-01T04:25:11;4.60;;;3.60;;
21138;SDS011;10727;43.600;1.444;2023-02-01T04:28:16;5.97;;;3.75;;
21138;SDS011;10727;43.600;1.444;2023-02-01T04:31:21;4.82;;;3.38;;
21138;SDS011;10727;43.600;1.444;2023-02-01T04:34:29;4.30;;;3.53;;
21138;SDS011;10727;43.600;1.444;2023-02-01T04:37:34;6.70;;;3.55;;
21138;SDS011;10727;43.600;1.444;2023-02-01T04:40:41;4.93;;;3.50;;
21138;SDS011;10727;43.600;1.444;2023-02-01T04:43:46;4.00;;;3.25;;
21138;SDS011;10727;43.600;1.444;2023-02-01T04:46:51;4.18;;;3.45;;
21138;SDS011;10727;43.600;1.444;2023-02-01T04:49:56;3.45;;;3.10;;
21138;SDS011;10727;43.600;1.444;2023-02-01T04:53:00;4.53;;;3.30;;
21138;SDS011;10727;43.600;1.444;2023-02-01T04:56:07;5.88;;;3.40;;
21138;SDS011;10727;43.600;1.444;2023-02-01T04:59:12;4.38;;;3.25;;
21138;SDS011;10727;43.600;1.444;2023-02-01T05:02:17;6.07;;;3.03;;
21138;SDS011;10727;43.600;1.444;2023-02-01T05:05:22;4.10;;;3.17;;
21138;SDS011;10727;43.600;1.444;2023-02-01T05:08:27;4.10;;;2.88;;
21138;SDS011;10727;43.600;1.444;2023-02-01T05:11:34;3.67;;;2.88;;
21138;SDS011;10727;43.600;1.444;2023-02-01T05:14:57;3.80;;;2.95;;
21138;SDS011;10727;43.600;1.444;2023-02-01T05:18:02;3.50;;;2.80;;
21138;SDS011;10727;43.600;1.444;2023-02-01T05:21:07;3.38;;;2.90;;
21138;SDS011;10727;43.600;1.444;2023-02-01T05:24:11;3.60;;;2.85;;
21138;SDS011;10727;43.600;1.444;2023-02-01T05:27:20;3.05;;;2.63;;
21138;SDS011;10727;43.600;1.444;2023-02-01T05:30:26;3.70;;;2.70;;
21138;SDS011;10727;43.600;1.444;2023-02-01T05:33:30;3.83;;;2.78;;
21138;SDS011;10727;43.600;1.444;2023-02-01T05:36:35;3.25;;;2.67;;
21138;SDS011;10727;43.600;1.444;2023-02-01T05:39:40;3.25;;;2.60;;
21138;SDS011;10727;43.600;1.444;2023-02-01T05:42:46;2.72;;;2.33;;
21138;SDS011;10727;43.600;1.444;2023-02-01T05:45:52;4.57;;;2.65;;
21138;SDS011;10727;43.600;1.444;2023-02-01T05:48:57;3.65;;;2.55;;
21138;SDS011;10727;43.600;1.444;2023-02-01T05:52:03;3.00;;;2.40;;
21138;SDS011;10727;43.600;1.444;2023-02-01T05:55:08;2.67;;;2.35;;
21138;SDS011;10727;43.600;1.444;2023-02-01T05:58:15;3.35;;;2.30;;
21138;SDS011;10727;43.600;1.444;2023-02-01T06:01:20;4.22;;;2.33;;
21138;SDS011;10727;43.600;1.444;2023-02-01T06:04:25;2.95;;;2.42;;
21138;SDS011;10727;43.600;1.444;2023-02-01T06:07:30;2.72;;;2.15;;
21138;SDS011;10727;43.600;1.444;2023-02-01T06:10:36;3.08;;;2.40;;
21138;SDS011;10727;43.600;1.444;2023-02-01T06:13:42;3.42;;;2.60;;
21138;SDS011;10727;43.600;1.444;2023-02-01T06:16:48;3.13;;;2.45;;
21138;SDS011;10727;43.600;1.444;2023-02-01T06:19:53;3.63;;;2.33;;
21138;SDS011;10727;43.600;1.444;2023-02-01T06:22:58;2.67;;;2.10;;
21138;SDS011;10727;43.600;1.444;2023-02-01T06:26:03;2.97;;;2.55;;
21138;SDS011;10727;43.600;1.444;2023-02-01T06:29:12;2.95;;;2.30;;
21138;SDS011;10727;43.600;1.444;2023-02-01T06:32:17;2.50;;;1.95;;
21138;SDS011;10727;43.600;1.444;2023-02-01T06:35:22;2.80;;;2.40;;
21138;SDS011;10727;43.600;1.444;2023-02-01T06:38:27;2.67;;;2.20;;
21138;SDS011;10727;43.600;1.444;2023-02-01T06:41:32;3.83;;;2.63;;
21138;SDS011;10727;43.600;1.444;2023-02-01T06:44:40;3.53;;;2.33;;
21138;SDS011;10727;43.600;1.444;2023-02-01T06:47:45;3.67;;;2.30;;
21138;SDS011;10727;43.600;1.444;2023-02-01T06:50:50;2.30;;;2.10;;
21138;SDS011;10727;43.600;1.444;2023-02-01T06:53:56;2.47;;;2.08;;
21138;SDS011;10727;43.600;1.444;2023-02-01T06:57:01;3.13;;;2.30;;
21138;SDS011;10727;43.600;1.444;2023-02-01T07:00:08;3.13;;;2.50;;
21138;SDS011;10727;43.600;1.444;2023-02-01T07:03:13;4.15;;;2.10;;
21138;SDS011;10727;43.600;1.444;2023-02-01T07:06:19;3.88;;;2.40;;
21138;SDS011;10727;43.600;1.444;2023-02-01T07:09:24;3.58;;;1.95;;
21138;SDS011;10727;43.600;1.444;2023-02-01T07:12:29;3.42;;;2.22;;
21138;SDS011;10727;43.600;1.444;2023-02-01T07:15:35;3.30;;;2.10;;
21138;SDS011;10727;43.600;1.444;2023-02-01T07:18:40;3.20;;;2.22;;
21138;SDS011;10727;43.600;1.444;2023-02-01T07:21:45;6.80;;;2.28;;
21138;SDS011;10727;43.600;1.444;2023-02-01T07:24:50;3.88;;;1.98;;
21138;SDS011;10727;43.600;1.444;2023-02-01T07:27:55;3.53;;;2.30;;
21138;SDS011;10727;43.600;1.444;2023-02-01T07:31:05;3.45;;;2.35;;
21138;SDS011;10727;43.600;1.444;2023-02-01T07:34:10;4.07;;;2.15;;
21138;SDS011;10727;43.600;1.444;2023-02-01T07:37:15;4.57;;;2.47;;
21138;SDS011;10727;43.600;1.444;2023-02-01T07:40:21;3.00;;;2.15;;
21138;SDS011;10727;43.600;1.444;2023-02-01T07:43:31;3.38;;;2.10;;
21138;SDS011;10727;43.600;1.444;2023-02-01T07:46:38;3.40;;;2.33;;
21138;SDS011;10727;43.600;1.444;2023-02-01T07:49:46;2.95;;;2.13;;
21138;SDS011;10727;43.600;1.444;2023-02-01T07:52:51;3.60;;;2.20;;
21138;SDS011;10727;43.600;1.444;2023-02-01T07:55:56;4.25;;;2.25;;
21138;SDS011;10727;43.600;1.444;2023-02-01T07:59:01;4.30;;;2.42;;
21138;SDS011;10727;43.600;1.444;2023-02-01T08:02:08;4.22;;;2.28;;
21138;SDS011;10727;43.600;1.444;2023-02-01T08:05:13;3.25;;;2.10;;
21138;SDS011;10727;43.600;1.444;2023-02-01T08:08:18;3.78;;;2.20;;
21138;SDS011;10727;43.600;1.444;2023-02-01T08:11:23;3.45;;;2.00;;
21138;SDS011;10727;43.600;1.444;2023-02-01T08:14:28;3.10;;;2.08;;
21138;SDS011;10727;43.600;1.444;2023-02-01T08:17:35;2.75;;;2.15;;
21138;SDS011;10727;43.600;1.444;2023-02-01T08:20:40;2.42;;;2.10;;
21138;SDS011;10727;43.600;1.444;2023-02-01T08:23:48;3.22;;;2.30;;
21138;SDS011;10727;43.600;1.444;2023-02-01T08:26:54;3.95;;;2.10;;
21138;SDS011;10727;43.600;1.444;2023-02-01T08:29:59;4.43;;;2.20;;
21138;SDS011;10727;43.600;1.444;2023-02-01T08:33:05;3.40;;;2.00;;
21138;SDS011;10727;43.600;1.444;2023-02-01T08:36:11;3.67;;;2.25;;
21138;SDS011;10727;43.600;1.444;2023-02-01T08:39:16;3.83;;;2.15;;
21138;SDS011;10727;43.600;1.444;2023-02-01T08:42:21;2.58;;;2.13;;
21138;SDS011;10727;43.600;1.444;2023-02-01T08:45:44;2.67;;;1.98;;
21138;SDS011;10727;43.600;1.444;2023-02-01T08:48:51;2.88;;;2.08;;
21138;SDS011;10727;43.600;1.444;2023-02-01T08:51:56;4.65;;;2.30;;
21138;SDS011;10727;43.600;1.444;2023-02-01T08:55:01;4.03;;;2.00;;
21138;SDS011;10727;43.600;1.444;2023-02-01T08:58:06;2.70;;;1.90;;
21138;SDS011;10727;43.600;1.444;2023-02-01T09:01:13;2.60;;;1.98;;
21138;SDS011;10727;43.600;1.444;2023-02-01T09:04:19;3.08;;;1.95;;
21138;SDS011;10727;43.600;1.444;2023-02-01T09:07:24;2.83;;;1.92;;
21138;SDS011;10727;43.600;1.444;2023-02-01T09:10:30;4.85;;;2.05;;
21138;SDS011;10727;43.600;1.444;2023-02-01T09:13:35;3.63;;;2.15;;
21138;SDS011;10727;43.600;1.444;2023-02-01T09:16:40;3.63;;;2.05;;
21138;SDS011;10727;43.600;1.444;2023-02-01T09:19:46;2.83;;;2.03;;
21138;SDS011;10727;43.600;1.444;2023-02-01T09:22:51;2.55;;;1.77;;
21138;SDS011;10727;43.600;1.444;2023-02-01T09:25:58;3.20;;;2.00;;
21138;SDS011;10727;43.600;1.444;2023-02-01T09:29:03;3.08;;;1.80;;
21138;SDS011;10727;43.600;1.444;2023-02-01T09:32:14;3.50;;;1.90;;
21138;SDS011;10727;43.600;1.444;2023-02-01T09:35:21;2.50;;;1.90;;
21138;SDS011;10727;43.600;1.444;2023-02-01T09:38:25;3.80;;;2.05;;
21138;SDS011;10727;43.600;1.444;2023-02-01T09:41:34;4.60;;;1.90;;
21138;SDS011;10727;43.600;1.444;2023-02-01T09:48:08;2.88;;;1.92;;
21138;SDS011;10727;43.600;1.444;2023-02-01T09:51:18;3.33;;;1.75;;
21138;SDS011;10727;43.600;1.444;2023-02-01T09:54:26;4.05;;;1.80;;
21138;SDS011;10727;43.600;1.444;2023-02-01T09:57:39;5.43;;;2.03;;
21138;SDS011;10727;43.600;1.444;2023-02-01T10:00:47;3.85;;;1.92;;
21138;SDS011;10727;43.600;1.444;2023-02-01T10:03:56;5.03;;;1.92;;
21138;SDS011;10727;43.600;1.444;2023-02-01T10:07:08;4.13;;;1.90;;
21138;SDS011;10727;43.600;1.444;2023-02-01T10:10:17;4.43;;;2.33;;
21138;SDS011;10727;43.600;1.444;2023-02-01T10:13:32;4.75;;;2.10;;
21138;SDS011;10727;43.600;1.444;2023-02-01T10:16:41;3.33;;;1.80;;
21138;SDS011;10727;43.600;1.444;2023-02-01T10:19:49;5.07;;;1.90;;
21138;SDS011;10727;43.600;1.444;2023-02-01T10:22:59;4.35;;;2.15;;
21138;SDS011;10727;43.600;1.444;2023-02-01T10:26:12;9.23;;;2.30;;
21138;SDS011;10727;43.600;1.444;2023-02-01T10:29:22;6.63;;;2.45;;
21138;SDS011;10727;43.600;1.444;2023-02-01T10:32:30;4.80;;;2.15;;
21138;SDS011;10727;43.600;1.444;2023-02-01T10:35:37;8.90;;;2.13;;
21138;SDS011;10727;43.600;1.444;2023-02-01T10:46:11;8.35;;;2.63;;
21138;SDS011;10727;43.600;1.444;2023-02-01T10:49:18;5.97;;;2.65;;
21138;SDS011;10727;43.600;1.444;2023-02-01T10:52:29;7.22;;;2.90;;
21138;SDS011;10727;43.600;1.444;2023-02-01T10:55:37;9.50;;;2.78;;
21138;SDS011;10727;43.600;1.444;2023-02-01T10:58:43;8.32;;;2.38;;
21138;SDS011;10727;43.600;1.444;2023-02-01T11:01:51;6.80;;;2.45;;
21138;SDS011;10727;43.600;1.444;2023-02-01T11:05:03;6.15;;;2.42;;
21138;SDS011;10727;43.600;1.444;2023-02-01T11:08:12;8.15;;;2.70;;
21138;SDS011;10727;43.600;1.444;2023-02-01T11:11:19;6.57;;;2.35;;
21138;SDS011;10727;43.600;1.444;2023-02-01T11:14:33;8.43;;;2.80;;
21138;SDS011;10727;43.600;1.444;2023-02-01T11:17:42;9.73;;;3.22;;
21138;SDS011;10727;43.600;1.444;2023-02-01T11:20:47;7.40;;;2.50;;
21138;SDS011;10727;43.600;1.444;2023-02-01T11:23:54;7.63;;;2.53;;
21138;SDS011;10727;43.600;1.444;2023-02-01T11:27:00;10.52;;;3.17;;
21138;SDS011;10727;43.600;1.444;2023-02-01T11:30:06;7.80;;;3.05;;
21138;SDS011;10727;43.600;1.444;2023-02-01T11:33:14;11.63;;;3.45;;
21138;SDS011;10727;43.600;1.444;2023-02-01T11:36:21;8.38;;;2.60;;
21138;SDS011;10727;43.600;1.444;2023-02-01T11:39:30;7.18;;;3.10;;
21138;SDS011;10727;43.600;1.444;2023-02-01T11:42:35;7.30;;;3.25;;
21138;SDS011;10727;43.600;1.444;2023-02-01T11:45:58;12.40;;;3.13;;
21138;SDS011;10727;43.600;1.444;2023-02-01T11:49:18;8.48;;;3.00;;
21138;SDS011;10727;43.600;1.444;2023-02-01T11:55:53;7.47;;;2.65;;
21138;SDS011;10727;43.600;1.444;2023-02-01T11:59:04;7.78;;;3.28;;
21138;SDS011;10727;43.600;1.444;2023-02-01T12:02:21;5.70;;;2.45;;
21138;SDS011;10727;43.600;1.444;2023-02-01T12:05:35;11.40;;;3.38;;
21138;SDS011;10727;43.600;1.444;2023-02-01T12:08:51;9.55;;;3.70;;
21138;SDS011;10727;43.600;1.444;2023-02-01T12:12:04;8.82;;;3.75;;
21138;SDS011;10727;43.600;1.444;2023-02-01T12:15:24;9.43;;;4.40;;
21138;SDS011;10727;43.600;1.444;2023-02-01T12:18:36;8.77;;;4.35;;
21138;SDS011;10727;43.600;1.444;2023-02-01T12:21:59;11.23;;;4.20;;
21138;SDS011;10727;43.600;1.444;2023-02-01T12:25:11;9.88;;;3.72;;
21138;SDS011;10727;43.600;1.444;2023-02-01T12:28:29;12.13;;;3.45;;
21138;SDS011;10727;43.600;1.444;2023-02-01T12:31:41;10.60;;;3.28;;
21138;SDS011;10727;43.600;1.444;2023-02-01T12:34:54;7.70;;;3.30;;
21138;SDS011;10727;43.600;1.444;2023-02-01T12:38:17;7.50;;;3.72;;
21138;SDS011;10727;43.600;1.444;2023-02-01T12:44:47;5.90;;;3.40;;
21138;SDS011;10727;43.600;1.444;2023-02-01T12:47:55;5.97;;;2.80;;
21138;SDS011;10727;43.600;1.444;2023-02-01T12:51:02;7.47;;;2.90;;
21138;SDS011;10727;43.600;1.444;2023-02-01T12:54:11;11.23;;;4.38;;
21138;SDS011;10727;43.600;1.444;2023-02-01T12:57:21;7.82;;;3.38;;
21138;SDS011;10727;43.600;1.444;2023-02-01T13:00:30;7.00;;;3.80;;
21138;SDS011;10727;43.600;1.444;2023-02-01T13:03:38;9.73;;;3.13;;
21138;SDS011;10727;43.600;1.444;2023-02-01T13:06:45;7.50;;;3.47;;
21138;SDS011;10727;43.600;1.444;2023-02-01T13:09:53;4.35;;;2.33;;
21138;SDS011;10727;43.600;1.444;2023-02-01T13:13:04;7.03;;;2.88;;
21138;SDS011;10727;43.600;1.444;2023-02-01T13:16:15;4.30;;;2.25;;
21138;SDS011;10727;43.600;1.444;2023-02-01T13:19:23;4.13;;;1.92;;
21138;SDS011;10727;43.600;1.444;2023-02-01T13:22:32;2.58;;;2.13;;
21138;SDS011;10727;43.600;1.444;2023-02-01T13:25:40;4.07;;;2.30;;
21138;SDS011;10727;43.600;1.444;2023-02-01T13:28:49;3.90;;;1.88;;
21138;SDS011;10727;43.600;1.444;2023-02-01T13:31:57;2.42;;;1.77;;
21138;SDS011;10727;43.600;1.444;2023-02-01T13:35:24;4.65;;;1.80;;
21138;SDS011;10727;43.600;1.444;2023-02-01T13:41:54;4.00;;;2.38;;
21138;SDS011;10727;43.600;1.444;2023-02-01T13:45:01;4.93;;;2.60;;
21138;SDS011;10727;43.600;1.444;2023-02-01T13:48:14;6.35;;;3.10;;
21138;SDS011;10727;43.600;1.444;2023-02-01T13:51:32;7.72;;;3.17;;
21138;SDS011;10727;43.600;1.444;2023-02-01T13:54:38;9.80;;;2.92;;
21138;SDS011;10727;43.600;1.444;2023-02-01T13:57:45;3.92;;;2.60;;
21138;SDS011;10727;43.600;1.444;2023-02-01T14:00:51;5.53;;;2.33;;
21138;SDS011;10727;43.600;1.444;2023-02-01T14:04:45;4.53;;;2.47;;
21138;SDS011;10727;43.600;1.444;2023-02-01T14:08:08;5.20;;;2.40;;
21138;SDS011;10727;43.600;1.444;2023-02-01T14:14:41;4.25;;;2.40;;
21138;SDS011;10727;43.600;1.444;2023-02-01T14:17:46;4.10;;;2.20;;
21138;SDS011;10727;43.600;1.444;2023-02-01T14:20:57;3.42;;;2.55;;
21138;SDS011;10727;43.600;1.444;2023-02-01T14:24:20;3.47;;;2.20;;
21138;SDS011;10727;43.600;1.444;2023-02-01T14:27:28;5.20;;;2.47;;
21138;SDS011;10727;43.600;1.444;2023-02-01T14:30:35;4.35;;;2.60;;
21138;SDS011;10727;43.600;1.444;2023-02-01T14:33:41;5.80;;;2.70;;
21138;SDS011;10727;43.600;1.444;2023-02-01T14:36:47;6.57;;;2.42;;
21138;SDS011;10727;43.600;1.444;2023-02-01T14:39:54;4.20;;;2.78;;
21138;SDS011;10727;43.600;1.444;2023-02-01T14:43:00;5.72;;;2.83;;
21138;SDS011;10727;43.600;1.444;2023-02-01T14:46:06;5.32;;;3.35;;
21138;SDS011;10727;43.600;1.444;2023-02-01T14:49:11;4.57;;;3.15;;
21138;SDS011;10727;43.600;1.444;2023-02-01T14:52:17;6.28;;;3.17;;
21138;SDS011;10727;43.600;1.444;2023-02-01T14:55:27;8.85;;;3.47;;
21138;SDS011;10727;43.600;1.444;2023-02-01T14:58:35;6.20;;;3.00;;
21138;SDS011;10727;43.600;1.444;2023-02-01T15:01:48;7.80;;;3.08;;
21138;SDS011;10727;43.600;1.444;2023-02-01T15:04:55;5.05;;;2.75;;
21138;SDS011;10727;43.600;1.444;2023-02-01T15:08:04;5.25;;;3.00;;
21138;SDS011;10727;43.600;1.444;2023-02-01T15:11:11;5.38;;;3.03;;
21138;SDS011;10727;43.600;1.444;2023-02-01T15:14:18;8.75;;;3.25;;
21138;SDS011;10727;43.600;1.444;2023-02-01T15:17:25;8.80;;;3.30;;
21138;SDS011;10727;43.600;1.444;2023-02-01T15:20:31;14.43;;;3.75;;
21138;SDS011;10727;43.600;1.444;2023-02-01T15:23:36;9.45;;;4.03;;
21138;SDS011;10727;43.600;1.444;2023-02-01T15:26:41;7.65;;;3.10;;
21138;SDS011;10727;43.600;1.444;2023-02-01T15:29:47;7.78;;;3.20;;
21138;SDS011;10727;43.600;1.444;2023-02-01T15:33:03;5.38;;;2.55;;
21138;SDS011;10727;43.600;1.444;2023-02-01T15:36:10;2.90;;;2.42;;
21138;SDS011;10727;43.600;1.444;2023-02-01T15:39:20;15.38;;;2.80;;
21138;SDS011;10727;43.600;1.444;2023-02-01T15:42:28;4.78;;;2.45;;
21138;SDS011;10727;43.600;1.444;2023-02-01T15:45:33;4.38;;;2.40;;
21138;SDS011;10727;43.600;1.444;2023-02-01T15:48:41;5.40;;;2.70;;
21138;SDS011;10727;43.600;1.444;2023-02-01T15:51:47;5.68;;;2.28;;
21138;SDS011;10727;43.600;1.444;2023-02-01T15:54:53;4.35;;;2.30;;
21138;SDS011;10727;43.600;1.444;2023-02-01T15:57:59;4.95;;;2.55;;
21138;SDS011;10727;43.600;1.444;2023-02-01T16:01:05;5.05;;;3.00;;
21138;SDS011;10727;43.600;1.444;2023-02-01T16:04:14;8.13;;;3.40;;
21138;SDS011;10727;43.600;1.444;2023-02-01T16:07:22;4.78;;;2.80;;
21138;SDS011;10727;43.600;1.444;2023-02-01T16:10:30;4.80;;;2.33;;
21138;SDS011;10727;43.600;1.444;2023-02-01T16:13:35;4.20;;;2.17;;
21138;SDS011;10727;43.600;1.444;2023-02-01T16:16:40;5.15;;;2.42;;
21138;SDS011;10727;43.600;1.444;2023-02-01T16:19:47;3.03;;;2.30;;
21138;SDS011;10727;43.600;1.444;2023-02-01T16:22:52;6.32;;;2.70;;
21138;SDS011;10727;43.600;1.444;2023-02-01T16:25:57;3.05;;;2.53;;
21138;SDS011;10727;43.600;1.444;2023-02-01T16:29:02;4.22;;;2.67;;
21138;SDS011;10727;43.600;1.444;2023-02-01T16:32:11;5.30;;;2.33;;
21138;SDS011;10727;43.600;1.444;2023-02-01T16:35:20;3.25;;;2.30;;
21138;SDS011;10727;43.600;1.444;2023-02-01T16:38:26;2.60;;;2.13;;
21138;SDS011;10727;43.600;1.444;2023-02-01T16:41:31;2.92;;;2.30;;
21138;SDS011;10727;43.600;1.444;2023-02-01T16:44:36;5.05;;;2.08;;
21138;SDS011;10727;43.600;1.444;2023-02-01T16:47:42;6.13;;;2.25;;
21138;SDS011;10727;43.600;1.444;2023-02-01T16:50:53;5.18;;;2.30;;
21138;SDS011;10727;43.600;1.444;2023-02-01T16:53:59;5.32;;;2.35;;
21138;SDS011;10727;43.600;1.444;2023-02-01T16:57:04;4.93;;;2.50;;
21138;SDS011;10727;43.600;1.444;2023-02-01T17:00:10;4.75;;;2.28;;
21138;SDS011;10727;43.600;1.444;2023-02-01T17:03:16;4.13;;;2.60;;
21138;SDS011;10727;43.600;1.444;2023-02-01T17:06:24;4.80;;;2.22;;
21138;SDS011;10727;43.600;1.444;2023-02-01T17:09:30;5.78;;;2.40;;
21138;SDS011;10727;43.600;1.444;2023-02-01T17:12:35;3.53;;;2.40;;
21138;SDS011;10727;43.600;1.444;2023-02-01T17:15:42;3.50;;;2.42;;
21138;SDS011;10727;43.600;1.444;2023-02-01T17:18:52;2.88;;;2.08;;
21138;SDS011;10727;43.600;1.444;2023-02-01T17:21:59;3.05;;;2.30;;
21138;SDS011;10727;43.600;1.444;2023-02-01T17:25:06;3.80;;;2.63;;
21138;SDS011;10727;43.600;1.444;2023-02-01T17:28:12;4.15;;;2.30;;
21138;SDS011;10727;43.600;1.444;2023-02-01T17:31:17;2.72;;;2.28;;
21138;SDS011;10727;43.600;1.444;2023-02-01T17:34:22;4.95;;;2.63;;
21138;SDS011;10727;43.600;1.444;2023-02-01T17:37:29;3.35;;;2.50;;
21138;SDS011;10727;43.600;1.444;2023-02-01T17:40:35;4.18;;;2.22;;
21138;SDS011;10727;43.600;1.444;2023-02-01T17:43:40;3.45;;;2.53;;
21138;SDS011;10727;43.600;1.444;2023-02-01T17:46:45;3.58;;;2.58;;
21138;SDS011;10727;43.600;1.444;2023-02-01T17:49:50;3.05;;;2.53;;
21138;SDS011;10727;43.600;1.444;2023-02-01T17:52:59;4.13;;;2.30;;
21138;SDS011;10727;43.600;1.444;2023-02-01T17:56:05;3.47;;;2.88;;
21138;SDS011;10727;43.600;1.444;2023-02-01T17:59:10;5.20;;;3.30;;
21138;SDS011;10727;43.600;1.444;2023-02-01T18:02:18;4.70;;;2.92;;
21138;SDS011;10727;43.600;1.444;2023-02-01T18:05:25;4.63;;;3.10;;
21138;SDS011;10727;43.600;1.444;2023-02-01T18:08:31;8.15;;;3.13;;
21138;SDS011;10727;43.600;1.444;2023-02-01T18:11:37;5.65;;;3.03;;
21138;SDS011;10727;43.600;1.444;2023-02-01T18:14:43;6.43;;;3.40;;
21138;SDS011;10727;43.600;1.444;2023-02-01T18:17:48;4.40;;;3.28;;
21138;SDS011;10727;43.600;1.444;2023-02-01T18:20:53;5.80;;;3.60;;
21138;SDS011;10727;43.600;1.444;2023-02-01T18:24:00;8.18;;;4.18;;
21138;SDS011;10727;43.600;1.444;2023-02-01T18:27:06;7.00;;;4.68;;
21138;SDS011;10727;43.600;1.444;2023-02-01T18:30:11;7.75;;;4.47;;
21138;SDS011;10727;43.600;1.444;2023-02-01T18:33:17;6.43;;;4.13;;
21138;SDS011;10727;43.600;1.444;2023-02-01T18:36:23;6.97;;;4.85;;
21138;SDS011;10727;43.600;1.444;2023-02-01T18:39:30;5.93;;;4.45;;
21138;SDS011;10727;43.600;1.444;2023-02-01T18:42:35;8.27;;;4.97;;
21138;SDS011;10727;43.600;1.444;2023-02-01T18:45:41;6.15;;;4.68;;
21138;SDS011;10727;43.600;1.444;2023-02-01T18:48:46;8.65;;;5.00;;
21138;SDS011;10727;43.600;1.444;2023-02-01T18:51:51;8.30;;;5.40;;
21138;SDS011;10727;43.600;1.444;2023-02-01T18:54:58;7.80;;;5.47;;
21138;SDS011;10727;43.600;1.444;2023-02-01T18:58:03;10.40;;;6.45;;
21138;SDS011;10727;43.600;1.444;2023-02-01T19:01:12;12.60;;;6.43;;
21138;SDS011;10727;43.600;1.444;2023-02-01T19:04:18;10.85;;;6.78;;
21138;SDS011;10727;43.600;1.444;2023-02-01T19:07:23;11.57;;;6.80;;
21138;SDS011;10727;43.600;1.444;2023-02-01T19:10:30;12.52;;;6.97;;
21138;SDS011;10727;43.600;1.444;2023-02-01T19:13:36;13.65;;;7.75;;
21138;SDS011;10727;43.600;1.444;2023-02-01T19:16:41;13.27;;;7.53;;